sensor_id;sensor_type;location;lat;lon;timestamp;temperature;humidity
19214;DHT22;9741;51.020;5.304;2024-01-16T00:02:14;2.40;68.10
19214;DHT22;9741;51.020;5.304;2024-01-16T00:04:45;2.40;68.10
19214;DHT22;9741;51.020;5.304;2024-01-16T00:07:13;2.40;68.20
19214;DHT22;9741;51.020;5.304;2024-01-16T00:09:46;2.50;68.50
19214;DHT22;9741;51.020;5.304;2024-01-16T00:12:22;2.50;68.20
19214;DHT22;9741;51.020;5.304;2024-01-16T00:14:51;2.60;68.30
19214;DHT22;9741;51.020;5.304;2024-01-16T00:17:27;2.60;68.30
19214;DHT22;9741;51.020;5.304;2024-01-16T00:19:57;2.60;68.20
19214;DHT22;9741;51.020;5.304;2024-01-16T00:22:36;2.60;68.10
19214;DHT22;9741;51.020;5.304;2024-01-16T00:25:11;2.70;68.20
19214;DHT22;9741;51.020;5.304;2024-01-16T00:27:45;2.70;68.10
19214;DHT22;9741;51.020;5.304;2024-01-16T00:30:14;2.70;68.10
19214;DHT22;9741;51.020;5.304;2024-01-16T00:32:49;2.70;68.10
19214;DHT22;9741;51.020;5.304;2024-01-16T00:35:18;2.70;68.10
19214;DHT22;9741;51.020;5.304;2024-01-16T00:37:48;2.70;68.10
19214;DHT22;9741;51.020;5.304;2024-01-16T00:40:19;2.80;68.20
19214;DHT22;9741;51.020;5.304;2024-01-16T00:43:03;2.80;68.10
19214;DHT22;9741;51.020;5.304;2024-01-16T00:45:32;2.80;68.10
19214;DHT22;9741;51.020;5.304;2024-01-16T00:48:04;2.80;68.10
19214;DHT22;9741;51.020;5.304;2024-01-16T00:50:39;2.80;68.10
19214;DHT22;9741;51.020;5.304;2024-01-16T00:53:09;2.80;68.10
19214;DHT22;9741;51.020;5.304;2024-01-16T00:55:37;2.80;68.10
19214;DHT22;9741;51.020;5.304;2024-01-16T00:58:13;2.70;68.00
19214;DHT22;9741;51.020;5.304;2024-01-16T01:00:41;2.80;68.10
19214;DHT22;9741;51.020;5.304;2024-01-16T01:03:08;2.80;68.20
19214;DHT22;9741;51.020;5.304;2024-01-16T01:05:40;2.80;68.20
19214;DHT22;9741;51.020;5.304;2024-01-16T01:08:14;2.80;68.20
19214;DHT22;9741;51.020;5.304;2024-01-16T01:10:43;2.80;68.10
19214;DHT22;9741;51.020;5.304;2024-01-16T01:13:16;2.80;68.10
19214;DHT22;9741;51.020;5.304;2024-01-16T01:15:44;2.80;68.10
19214;DHT22;9741;51.020;5.304;2024-01-16T01:18:15;2.80;68.00
19214;DHT22;9741;51.020;5.304;2024-01-16T01:20:44;2.90;68.10
19214;DHT22;9741;51.020;5.304;2024-01-16T01:23:13;2.90;68.10
19214;DHT22;9741;51.020;5.304;2024-01-16T01:25:55;2.90;68.00
19214;DHT22;9741;51.020;5.304;2024-01-16T01:28:37;2.90;68.00
19214;DHT22;9741;51.020;5.304;2024-01-16T01:31:10;2.90;68.00
19214;DHT22;9741;51.020;5.304;2024-01-16T01:33:40;2.90;68.00
19214;DHT22;9741;51.020;5.304;2024-01-16T01:36:11;2.90;68.00
19214;DHT22;9741;51.020;5.304;2024-01-16T01:38:41;2.90;68.00
19214;DHT22;9741;51.020;5.304;2024-01-16T01:41:10;2.90;68.00
19214;DHT22;9741;51.020;5.304;2024-01-16T01:43:44;2.90;68.00
19214;DHT22;9741;51.020;5.304;2024-01-16T01:46:16;2.90;68.00
19214;DHT22;9741;51.020;5.304;2024-01-16T01:48:52;2.90;68.00
19214;DHT22;9741;51.020;5.304;2024-01-16T01:51:29;2.90;68.10
19214;DHT22;9741;51.020;5.304;2024-01-16T01:54:00;2.90;68.00
19214;DHT22;9741;51.020;5.304;2024-01-16T01:56:33;2.90;68.00
19214;DHT22;9741;51.020;5.304;2024-01-16T01:59:07;2.90;68.00
19214;DHT22;9741;51.020;5.304;2024-01-16T02:01:35;2.90;68.00
19214;DHT22;9741;51.020;5.304;2024-01-16T02:04:06;2.90;68.00
19214;DHT22;9741;51.020;5.304;2024-01-16T02:06:36;2.80;67.90
19214;DHT22;9741;51.020;5.304;2024-01-16T02:09:11;2.80;67.90
19214;DHT22;9741;51.020;5.304;2024-01-16T02:11:39;2.80;67.90
19214;DHT22;9741;51.020;5.304;2024-01-16T02:14:13;2.80;67.90
19214;DHT22;9741;51.020;5.304;2024-01-16T02:16:41;2.80;67.90
19214;DHT22;9741;51.020;5.304;2024-01-16T02:19:11;2.80;67.90
19214;DHT22;9741;51.020;5.304;2024-01-16T02:21:41;2.80;67.90
19214;DHT22;9741;51.020;5.304;2024-01-16T02:24:17;2.80;67.90
19214;DHT22;9741;51.020;5.304;2024-01-16T02:26:49;2.80;67.90
19214;DHT22;9741;51.020;5.304;2024-01-16T02:29:19;2.70;67.70
19214;DHT22;9741;51.020;5.304;2024-01-16T02:31:47;2.70;67.80
19214;DHT22;9741;51.020;5.304;2024-01-16T02:34:25;2.70;67.70
19214;DHT22;9741;51.020;5.304;2024-01-16T02:36:55;2.70;67.80
19214;DHT22;9741;51.020;5.304;2024-01-16T02:39:25;2.60;67.70
19214;DHT22;9741;51.020;5.304;2024-01-16T02:41:54;2.60;67.70
19214;DHT22;9741;51.020;5.304;2024-01-16T02:44:25;2.60;67.70
19214;DHT22;9741;51.020;5.304;2024-01-16T02:46:56;2.50;67.60
19214;DHT22;9741;51.020;5.304;2024-01-16T02:49:33;2.50;67.70
19214;DHT22;9741;51.020;5.304;2024-01-16T02:52:09;2.50;67.70
19214;DHT22;9741;51.020;5.304;2024-01-16T02:55:00;2.40;67.60
19214;DHT22;9741;51.020;5.304;2024-01-16T02:57:32;2.40;67.60
19214;DHT22;9741;51.020;5.304;2024-01-16T03:00:07;2.40;67.60
19214;DHT22;9741;51.020;5.304;2024-01-16T03:02:43;2.30;67.50
19214;DHT22;9741;51.020;5.304;2024-01-16T03:05:11;2.30;67.50
19214;DHT22;9741;51.020;5.304;2024-01-16T03:07:39;2.20;67.40
19214;DHT22;9741;51.020;5.304;2024-01-16T03:10:25;2.20;67.40
19214;DHT22;9741;51.020;5.304;2024-01-16T03:12:53;2.10;67.40
19214;DHT22;9741;51.020;5.304;2024-01-16T03:15:24;2.10;67.40
19214;DHT22;9741;51.020;5.304;2024-01-16T03:17:57;2.00;67.40
19214;DHT22;9741;51.020;5.304;2024-01-16T03:20:27;1.90;67.40
19214;DHT22;9741;51.020;5.304;2024-01-16T03:22:55;1.90;67.40
19214;DHT22;9741;51.020;5.304;2024-01-16T03:25:28;1.80;67.30
19214;DHT22;9741;51.020;5.304;2024-01-16T03:28:01;1.80;67.30
19214;DHT22;9741;51.020;5.304;2024-01-16T03:30:39;1.70;67.20
19214;DHT22;9741;51.020;5.304;2024-01-16T03:33:13;1.60;67.10
19214;DHT22;9741;51.020;5.304;2024-01-16T03:35:44;1.50;67.10
19214;DHT22;9741;51.020;5.304;2024-01-16T03:38:14;1.50;67.20
19214;DHT22;9741;51.020;5.304;2024-01-16T03:40:58;1.40;67.10
19214;DHT22;9741;51.020;5.304;2024-01-16T03:43:25;1.30;67.10
19214;DHT22;9741;51.020;5.304;2024-01-16T03:45:57;1.20;67.00
19214;DHT22;9741;51.020;5.304;2024-01-16T03:48:34;1.20;67.10
19214;DHT22;9741;51.020;5.304;2024-01-16T03:51:02;1.10;67.00
19214;DHT22;9741;51.020;5.304;2024-01-16T03:53:33;1.10;67.00
19214;DHT22;9741;51.020;5.304;2024-01-16T03:56:11;0.90;66.80
19214;DHT22;9741;51.020;5.304;2024-01-16T03:58:40;0.90;66.80
19214;DHT22;9741;51.020;5.304;2024-01-16T04:01:09;0.80;66.80
19214;DHT22;9741;51.020;5.304;2024-01-16T04:03:39;0.60;66.60
19214;DHT22;9741;51.020;5.304;2024-01-16T04:06:17;0.60;66.70
19214;DHT22;9741;51.020;5.304;2024-01-16T04:08:45;0.50;66.60
19214;DHT22;9741;51.020;5.304;2024-01-16T04:11:21;0.40;66.50
19214;DHT22;9741;51.020;5.304;2024-01-16T04:13:52;0.30;66.60
19214;DHT22;9741;51.020;5.304;2024-01-16T04:16:23;0.20;66.50
19214;DHT22;9741;51.020;5.304;2024-01-16T04:18:53;0.20;66.60
19214;DHT22;9741;51.020;5.304;2024-01-16T04:21:23;0.10;66.60
19214;DHT22;9741;51.020;5.304;2024-01-16T04:23:51;0.00;66.50
19214;DHT22;9741;51.020;5.304;2024-01-16T04:26:29;0.00;66.50
19214;DHT22;9741;51.020;5.304;2024-01-16T04:29:10;-0.10;66.50
19214;DHT22;9741;51.020;5.304;2024-01-16T04:31:41;-0.20;66.50
19214;DHT22;9741;51.020;5.304;2024-01-16T04:34:16;-0.20;66.60
19214;DHT22;9741;51.020;5.304;2024-01-16T04:36:52;-0.20;66.70
19214;DHT22;9741;51.020;5.304;2024-01-16T04:39:24;-0.20;66.80
19214;DHT22;9741;51.020;5.304;2024-01-16T04:41:57;-0.20;66.80
19214;DHT22;9741;51.020;5.304;2024-01-16T04:44:26;-0.20;66.90
19214;DHT22;9741;51.020;5.304;2024-01-16T04:47:01;-0.20;66.90
19214;DHT22;9741;51.020;5.304;2024-01-16T04:49:32;-0.20;67.00
19214;DHT22;9741;51.020;5.304;2024-01-16T04:52:04;-0.20;67.10
19214;DHT22;9741;51.020;5.304;2024-01-16T04:54:34;-0.20;67.00
19214;DHT22;9741;51.020;5.304;2024-01-16T04:57:07;-0.20;67.10
19214;DHT22;9741;51.020;5.304;2024-01-16T04:59:36;-0.10;67.20
19214;DHT22;9741;51.020;5.304;2024-01-16T05:02:03;0.00;67.30
19214;DHT22;9741;51.020;5.304;2024-01-16T05:04:31;0.00;67.30
19214;DHT22;9741;51.020;5.304;2024-01-16T05:07:03;0.00;67.30
19214;DHT22;9741;51.020;5.304;2024-01-16T05:09:40;0.10;67.20
19214;DHT22;9741;51.020;5.304;2024-01-16T05:12:14;0.10;67.10
19214;DHT22;9741;51.020;5.304;2024-01-16T05:14:43;0.10;67.10
19214;DHT22;9741;51.020;5.304;2024-01-16T05:17:18;0.10;67.00
19214;DHT22;9741;51.020;5.304;2024-01-16T05:19:50;0.10;67.00
19214;DHT22;9741;51.020;5.304;2024-01-16T05:22:28;0.10;67.00
19214;DHT22;9741;51.020;5.304;2024-01-16T05:25:06;0.10;67.00
19214;DHT22;9741;51.020;5.304;2024-01-16T05:27:42;0.10;66.90
19214;DHT22;9741;51.020;5.304;2024-01-16T05:30:16;0.10;66.90
19214;DHT22;9741;51.020;5.304;2024-01-16T05:32:51;0.10;66.90
19214;DHT22;9741;51.020;5.304;2024-01-16T05:35:22;0.00;66.90
19214;DHT22;9741;51.020;5.304;2024-01-16T05:38:00;0.00;66.80
19214;DHT22;9741;51.020;5.304;2024-01-16T05:40:30;0.00;66.80
19214;DHT22;9741;51.020;5.304;2024-01-16T05:43:03;-0.10;66.70
19214;DHT22;9741;51.020;5.304;2024-01-16T05:45:32;-0.10;66.70
19214;DHT22;9741;51.020;5.304;2024-01-16T05:48:02;-0.10;66.80
19214;DHT22;9741;51.020;5.304;2024-01-16T05:50:33;-0.20;66.70
19214;DHT22;9741;51.020;5.304;2024-01-16T05:53:06;-0.20;66.70
19214;DHT22;9741;51.020;5.304;2024-01-16T05:55:36;-0.20;66.70
19214;DHT22;9741;51.020;5.304;2024-01-16T05:58:10;-0.20;66.70
19214;DHT22;9741;51.020;5.304;2024-01-16T06:00:45;-0.30;66.70
19214;DHT22;9741;51.020;5.304;2024-01-16T06:03:12;-0.30;66.80
19214;DHT22;9741;51.020;5.304;2024-01-16T06:05:41;-0.30;66.90
19214;DHT22;9741;51.020;5.304;2024-01-16T06:08:18;-0.30;66.90
19214;DHT22;9741;51.020;5.304;2024-01-16T06:10:54;-0.30;67.10
19214;DHT22;9741;51.020;5.304;2024-01-16T06:13:39;-0.30;66.90
19214;DHT22;9741;51.020;5.304;2024-01-16T06:16:10;-0.30;66.90
19214;DHT22;9741;51.020;5.304;2024-01-16T06:18:41;-0.30;66.70
19214;DHT22;9741;51.020;5.304;2024-01-16T06:21:09;-0.30;66.70
19214;DHT22;9741;51.020;5.304;2024-01-16T06:23:39;-0.30;66.70
19214;DHT22;9741;51.020;5.304;2024-01-16T06:26:11;-0.40;66.60
19214;DHT22;9741;51.020;5.304;2024-01-16T06:28:45;-0.40;66.60
19214;DHT22;9741;51.020;5.304;2024-01-16T06:31:14;-0.40;66.70
19214;DHT22;9741;51.020;5.304;2024-01-16T06:33:44;-0.50;66.70
19214;DHT22;9741;51.020;5.304;2024-01-16T06:36:12;-0.50;66.80
19214;DHT22;9741;51.020;5.304;2024-01-16T06:38:44;-0.40;66.90
19214;DHT22;9741;51.020;5.304;2024-01-16T06:41:15;-0.40;66.90
19214;DHT22;9741;51.020;5.304;2024-01-16T06:43:47;-0.40;66.90
19214;DHT22;9741;51.020;5.304;2024-01-16T06:46:20;-0.30;67.00
19214;DHT22;9741;51.020;5.304;2024-01-16T06:48:52;-0.30;66.90
19214;DHT22;9741;51.020;5.304;2024-01-16T06:51:28;-0.30;66.80
19214;DHT22;9741;51.020;5.304;2024-01-16T06:54:00;-0.30;66.80
19214;DHT22;9741;51.020;5.304;2024-01-16T06:56:31;-0.30;66.70
19214;DHT22;9741;51.020;5.304;2024-01-16T06:59:15;-0.20;66.70
19214;DHT22;9741;51.020;5.304;2024-01-16T07:01:53;-0.20;66.70
19214;DHT22;9741;51.020;5.304;2024-01-16T07:04:30;-0.20;66.70
19214;DHT22;9741;51.020;5.304;2024-01-16T07:07:01;-0.20;66.80
19214;DHT22;9741;51.020;5.304;2024-01-16T07:09:34;-0.20;66.90
19214;DHT22;9741;51.020;5.304;2024-01-16T07:12:02;-0.20;66.80
19214;DHT22;9741;51.020;5.304;2024-01-16T07:14:38;-0.10;66.90
19214;DHT22;9741;51.020;5.304;2024-01-16T07:17:08;-0.10;66.80
19214;DHT22;9741;51.020;5.304;2024-01-16T07:19:40;-0.10;66.80
19214;DHT22;9741;51.020;5.304;2024-01-16T07:22:11;0.00;66.90
19214;DHT22;9741;51.020;5.304;2024-01-16T07:24:42;0.00;66.80
19214;DHT22;9741;51.020;5.304;2024-01-16T07:27:22;0.00;66.70
19214;DHT22;9741;51.020;5.304;2024-01-16T07:29:53;0.00;66.60
19214;DHT22;9741;51.020;5.304;2024-01-16T07:32:30;0.00;66.70
19214;DHT22;9741;51.020;5.304;2024-01-16T07:34:59;0.00;66.70
19214;DHT22;9741;51.020;5.304;2024-01-16T07:37:34;0.00;66.60
19214;DHT22;9741;51.020;5.304;2024-01-16T07:40:09;0.00;66.60
19214;DHT22;9741;51.020;5.304;2024-01-16T07:42:44;0.10;66.60
19214;DHT22;9741;51.020;5.304;2024-01-16T07:45:15;0.10;66.50
19214;DHT22;9741;51.020;5.304;2024-01-16T07:47:46;0.10;66.50
19214;DHT22;9741;51.020;5.304;2024-01-16T07:50:18;0.10;66.50
19214;DHT22;9741;51.020;5.304;2024-01-16T07:52:55;0.10;66.60
19214;DHT22;9741;51.020;5.304;2024-01-16T07:55:23;0.20;66.80
19214;DHT22;9741;51.020;5.304;2024-01-16T07:57:55;0.20;66.80
19214;DHT22;9741;51.020;5.304;2024-01-16T08:00:37;0.30;66.80
19214;DHT22;9741;51.020;5.304;2024-01-16T08:03:08;0.30;66.80
19214;DHT22;9741;51.020;5.304;2024-01-16T08:05:44;0.40;66.90
19214;DHT22;9741;51.020;5.304;2024-01-16T08:08:15;0.50;67.00
19214;DHT22;9741;51.020;5.304;2024-01-16T08:10:45;0.60;67.00
19214;DHT22;9741;51.020;5.304;2024-01-16T08:13:24;0.70;67.10
19214;DHT22;9741;51.020;5.304;2024-01-16T08:16:04;0.80;67.10
19214;DHT22;9741;51.020;5.304;2024-01-16T08:18:38;0.90;67.20
19214;DHT22;9741;51.020;5.304;2024-01-16T08:21:10;1.00;67.00
19214;DHT22;9741;51.020;5.304;2024-01-16T08:23:41;1.00;66.70
19214;DHT22;9741;51.020;5.304;2024-01-16T08:26:18;1.10;66.70
19214;DHT22;9741;51.020;5.304;2024-01-16T08:28:48;1.10;66.50
19214;DHT22;9741;51.020;5.304;2024-01-16T08:31:24;1.10;66.50
19214;DHT22;9741;51.020;5.304;2024-01-16T08:33:52;1.20;66.60
19214;DHT22;9741;51.020;5.304;2024-01-16T08:36:24;1.20;66.50
19214;DHT22;9741;51.020;5.304;2024-01-16T08:38:54;1.20;66.50
19214;DHT22;9741;51.020;5.304;2024-01-16T08:41:23;1.30;66.50
19214;DHT22;9741;51.020;5.304;2024-01-16T08:43:52;1.30;66.40
19214;DHT22;9741;51.020;5.304;2024-01-16T08:46:28;1.40;66.40
19214;DHT22;9741;51.020;5.304;2024-01-16T08:49:04;1.50;66.50
19214;DHT22;9741;51.020;5.304;2024-01-16T08:51:32;1.50;66.30
19214;DHT22;9741;51.020;5.304;2024-01-16T08:54:03;1.60;66.30
19214;DHT22;9741;51.020;5.304;2024-01-16T08:56:34;1.60;66.30
19214;DHT22;9741;51.020;5.304;2024-01-16T08:59:05;1.70;66.30
19214;DHT22;9741;51.020;5.304;2024-01-16T09:01:43;1.70;66.20
19214;DHT22;9741;51.020;5.304;2024-01-16T09:04:14;1.80;66.20
19214;DHT22;9741;51.020;5.304;2024-01-16T09:06:47;1.90;66.10
19214;DHT22;9741;51.020;5.304;2024-01-16T09:09:16;1.90;66.00
19214;DHT22;9741;51.020;5.304;2024-01-16T09:11:52;2.00;66.00
19214;DHT22;9741;51.020;5.304;2024-01-16T09:14:24;2.00;65.90
19214;DHT22;9741;51.020;5.304;2024-01-16T09:17:05;2.10;65.80
19214;DHT22;9741;51.020;5.304;2024-01-16T09:19:36;2.10;65.70
19214;DHT22;9741;51.020;5.304;2024-01-16T09:22:07;2.10;65.60
19214;DHT22;9741;51.020;5.304;2024-01-16T09:24:44;2.10;65.50
19214;DHT22;9741;51.020;5.304;2024-01-16T09:27:12;2.10;65.50
19214;DHT22;9741;51.020;5.304;2024-01-16T09:29:42;2.10;65.50
19214;DHT22;9741;51.020;5.304;2024-01-16T09:32:13;2.20;65.60
19214;DHT22;9741;51.020;5.304;2024-01-16T09:34:41;2.20;65.60
19214;DHT22;9741;51.020;5.304;2024-01-16T09:37:11;2.30;65.60
19214;DHT22;9741;51.020;5.304;2024-01-16T09:39:42;2.30;65.50
19214;DHT22;9741;51.020;5.304;2024-01-16T09:42:14;2.30;65.40
19214;DHT22;9741;51.020;5.304;2024-01-16T09:44:44;2.40;65.40
19214;DHT22;9741;51.020;5.304;2024-01-16T09:47:24;2.40;65.20
19214;DHT22;9741;51.020;5.304;2024-01-16T09:49:52;2.30;64.90
19214;DHT22;9741;51.020;5.304;2024-01-16T09:52:23;2.30;64.80
19214;DHT22;9741;51.020;5.304;2024-01-16T09:54:57;2.20;64.50
19214;DHT22;9741;51.020;5.304;2024-01-16T09:57:28;2.10;64.40
19214;DHT22;9741;51.020;5.304;2024-01-16T10:00:06;2.00;64.30
19214;DHT22;9741;51.020;5.304;2024-01-16T10:02:40;2.00;64.30
19214;DHT22;9741;51.020;5.304;2024-01-16T10:05:11;1.80;64.20
19214;DHT22;9741;51.020;5.304;2024-01-16T10:07:47;1.80;64.20
19214;DHT22;9741;51.020;5.304;2024-01-16T10:10:19;1.80;64.30
19214;DHT22;9741;51.020;5.304;2024-01-16T10:13:01;1.70;64.20
19214;DHT22;9741;51.020;5.304;2024-01-16T10:15:32;1.70;64.20
19214;DHT22;9741;51.020;5.304;2024-01-16T10:18:23;1.70;64.20
19214;DHT22;9741;51.020;5.304;2024-01-16T10:20:56;1.70;64.20
19214;DHT22;9741;51.020;5.304;2024-01-16T10:23:33;1.70;64.20
19214;DHT22;9741;51.020;5.304;2024-01-16T10:26:12;1.70;64.20
19214;DHT22;9741;51.020;5.304;2024-01-16T10:28:41;1.70;64.40
19214;DHT22;9741;51.020;5.304;2024-01-16T10:31:14;1.80;64.40
19214;DHT22;9741;51.020;5.304;2024-01-16T10:33:48;1.90;64.40
19214;DHT22;9741;51.020;5.304;2024-01-16T10:36:16;1.90;64.30
19214;DHT22;9741;51.020;5.304;2024-01-16T10:38:48;2.00;64.30
19214;DHT22;9741;51.020;5.304;2024-01-16T10:41:25;2.10;64.30
19214;DHT22;9741;51.020;5.304;2024-01-16T10:44:04;2.10;64.10
19214;DHT22;9741;51.020;5.304;2024-01-16T10:46:32;2.20;64.10
19214;DHT22;9741;51.020;5.304;2024-01-16T10:49:28;2.20;64.00
19214;DHT22;9741;51.020;5.304;2024-01-16T10:51:56;2.20;63.90
19214;DHT22;9741;51.020;5.304;2024-01-16T10:54:27;2.20;63.70
19214;DHT22;9741;51.020;5.304;2024-01-16T10:57:00;2.20;63.60
19214;DHT22;9741;51.020;5.304;2024-01-16T10:59:38;2.10;63.40
19214;DHT22;9741;51.020;5.304;2024-01-16T11:02:13;2.10;63.40
19214;DHT22;9741;51.020;5.304;2024-01-16T11:04:47;2.10;63.30
19214;DHT22;9741;51.020;5.304;2024-01-16T11:07:19;2.10;63.30
19214;DHT22;9741;51.020;5.304;2024-01-16T11:09:51;2.00;63.10
19214;DHT22;9741;51.020;5.304;2024-01-16T11:12:20;2.00;63.10
19214;DHT22;9741;51.020;5.304;2024-01-16T11:14:54;2.00;63.10
19214;DHT22;9741;51.020;5.304;2024-01-16T11:17:25;2.00;63.10
19214;DHT22;9741;51.020;5.304;2024-01-16T11:19:59;2.00;63.00
19214;DHT22;9741;51.020;5.304;2024-01-16T11:22:27;1.90;62.90
19214;DHT22;9741;51.020;5.304;2024-01-16T11:25:11;1.90;62.90
19214;DHT22;9741;51.020;5.304;2024-01-16T11:27:45;2.00;62.90
19214;DHT22;9741;51.020;5.304;2024-01-16T11:30:29;2.00;62.90
19214;DHT22;9741;51.020;5.304;2024-01-16T11:32:56;2.00;62.90
19214;DHT22;9741;51.020;5.304;2024-01-16T11:35:34;2.00;62.80
19214;DHT22;9741;51.020;5.304;2024-01-16T11:38:10;2.00;62.80
19214;DHT22;9741;51.020;5.304;2024-01-16T11:40:41;2.10;62.80
19214;DHT22;9741;51.020;5.304;2024-01-16T11:43:36;2.10;62.70
19214;DHT22;9741;51.020;5.304;2024-01-16T11:46:05;2.10;62.70
19214;DHT22;9741;51.020;5.304;2024-01-16T11:48:35;2.10;62.60
19214;DHT22;9741;51.020;5.304;2024-01-16T11:54:13;2.10;62.50
19214;DHT22;9741;51.020;5.304;2024-01-16T11:57:17;2.20;62.40
19214;DHT22;9741;51.020;5.304;2024-01-16T12:00:01;2.20;62.30
19214;DHT22;9741;51.020;5.304;2024-01-16T12:03:00;2.20;62.20
19214;DHT22;9741;51.020;5.304;2024-01-16T12:05:38;2.20;62.20
19214;DHT22;9741;51.020;5.304;2024-01-16T12:08:10;2.20;62.20
19214;DHT22;9741;51.020;5.304;2024-01-16T12:10:50;2.20;62.20
19214;DHT22;9741;51.020;5.304;2024-01-16T12:13:20;2.20;62.10
19214;DHT22;9741;51.020;5.304;2024-01-16T12:16:01;2.30;62.10
19214;DHT22;9741;51.020;5.304;2024-01-16T12:18:31;2.30;62.00
19214;DHT22;9741;51.020;5.304;2024-01-16T12:21:09;2.30;62.00
19214;DHT22;9741;51.020;5.304;2024-01-16T12:23:41;2.40;62.00
19214;DHT22;9741;51.020;5.304;2024-01-16T12:26:21;2.40;61.80
19214;DHT22;9741;51.020;5.304;2024-01-16T12:28:51;2.40;61.80
19214;DHT22;9741;51.020;5.304;2024-01-16T12:31:20;2.40;61.80
19214;DHT22;9741;51.020;5.304;2024-01-16T12:33:49;2.40;61.70
19214;DHT22;9741;51.020;5.304;2024-01-16T12:36:17;2.50;61.60
19214;DHT22;9741;51.020;5.304;2024-01-16T12:38:54;2.50;61.50
19214;DHT22;9741;51.020;5.304;2024-01-16T12:41:32;2.50;61.50
19214;DHT22;9741;51.020;5.304;2024-01-16T12:44:05;2.50;61.40
19214;DHT22;9741;51.020;5.304;2024-01-16T12:46:42;2.50;61.40
19214;DHT22;9741;51.020;5.304;2024-01-16T12:49:14;2.50;61.50
19214;DHT22;9741;51.020;5.304;2024-01-16T12:51:45;2.60;61.30
19214;DHT22;9741;51.020;5.304;2024-01-16T12:54:14;2.60;61.30
19214;DHT22;9741;51.020;5.304;2024-01-16T12:56:58;2.60;61.20
19214;DHT22;9741;51.020;5.304;2024-01-16T12:59:28;2.60;61.10
19214;DHT22;9741;51.020;5.304;2024-01-16T13:01:58;2.70;61.10
19214;DHT22;9741;51.020;5.304;2024-01-16T13:04:29;2.70;61.10
19214;DHT22;9741;51.020;5.304;2024-01-16T13:07:02;2.70;61.00
19214;DHT22;9741;51.020;5.304;2024-01-16T13:09:30;2.70;61.00
19214;DHT22;9741;51.020;5.304;2024-01-16T13:12:03;2.80;61.00
19214;DHT22;9741;51.020;5.304;2024-01-16T13:14:37;2.80;60.90
19214;DHT22;9741;51.020;5.304;2024-01-16T13:17:08;2.80;60.80
19214;DHT22;9741;51.020;5.304;2024-01-16T13:19:37;2.80;60.70
19214;DHT22;9741;51.020;5.304;2024-01-16T13:22:11;2.80;60.70
19214;DHT22;9741;51.020;5.304;2024-01-16T13:24:50;2.90;60.60
19214;DHT22;9741;51.020;5.304;2024-01-16T13:27:24;2.90;60.60
19214;DHT22;9741;51.020;5.304;2024-01-16T13:29:55;2.90;60.50
19214;DHT22;9741;51.020;5.304;2024-01-16T13:32:26;2.90;60.30
19214;DHT22;9741;51.020;5.304;2024-01-16T13:34:57;2.90;60.30
19214;DHT22;9741;51.020;5.304;2024-01-16T13:37:30;2.90;60.10
19214;DHT22;9741;51.020;5.304;2024-01-16T13:39:57;2.90;60.00
19214;DHT22;9741;51.020;5.304;2024-01-16T13:42:43;2.90;60.00
19214;DHT22;9741;51.020;5.304;2024-01-16T13:45:15;2.90;59.90
19214;DHT22;9741;51.020;5.304;2024-01-16T13:47:44;2.90;59.90
19214;DHT22;9741;51.020;5.304;2024-01-16T13:50:15;2.90;59.90
19214;DHT22;9741;51.020;5.304;2024-01-16T13:52:51;2.80;59.80
19214;DHT22;9741;51.020;5.304;2024-01-16T13:55:21;2.90;59.90
19214;DHT22;9741;51.020;5.304;2024-01-16T13:57:55;2.80;59.80
19214;DHT22;9741;51.020;5.304;2024-01-16T14:00:24;2.90;59.90
19214;DHT22;9741;51.020;5.304;2024-01-16T14:03:05;2.80;59.70
19214;DHT22;9741;51.020;5.304;2024-01-16T14:05:33;2.80;59.70
19214;DHT22;9741;51.020;5.304;2024-01-16T14:08:12;2.80;59.60
19214;DHT22;9741;51.020;5.304;2024-01-16T14:10:43;2.80;59.50
19214;DHT22;9741;51.020;5.304;2024-01-16T14:13:26;2.80;59.50
19214;DHT22;9741;51.020;5.304;2024-01-16T14:16:05;2.80;59.40
19214;DHT22;9741;51.020;5.304;2024-01-16T14:18:36;2.80;59.40
19214;DHT22;9741;51.020;5.304;2024-01-16T14:21:06;2.80;59.40
19214;DHT22;9741;51.020;5.304;2024-01-16T14:23:37;2.80;59.30
19214;DHT22;9741;51.020;5.304;2024-01-16T14:26:05;2.80;59.30
19214;DHT22;9741;51.020;5.304;2024-01-16T14:28:36;2.80;59.20
19214;DHT22;9741;51.020;5.304;2024-01-16T14:31:06;2.70;59.10
19214;DHT22;9741;51.020;5.304;2024-01-16T14:33:43;2.70;59.10
19214;DHT22;9741;51.020;5.304;2024-01-16T14:36:14;2.70;59.10
19214;DHT22;9741;51.020;5.304;2024-01-16T14:38:43;2.70;59.10
19214;DHT22;9741;51.020;5.304;2024-01-16T14:41:15;2.70;59.10
19214;DHT22;9741;51.020;5.304;2024-01-16T14:43:48;2.70;59.00
19214;DHT22;9741;51.020;5.304;2024-01-16T14:46:19;2.70;58.90
19214;DHT22;9741;51.020;5.304;2024-01-16T14:48:57;2.70;58.80
19214;DHT22;9741;51.020;5.304;2024-01-16T14:51:25;2.60;58.70
19214;DHT22;9741;51.020;5.304;2024-01-16T14:53:57;2.60;58.70
19214;DHT22;9741;51.020;5.304;2024-01-16T14:56:34;2.50;58.60
19214;DHT22;9741;51.020;5.304;2024-01-16T14:59:07;2.50;58.60
19214;DHT22;9741;51.020;5.304;2024-01-16T15:01:41;2.50;58.60
19214;DHT22;9741;51.020;5.304;2024-01-16T15:04:20;2.40;58.50
19214;DHT22;9741;51.020;5.304;2024-01-16T15:06:54;2.40;58.50
19214;DHT22;9741;51.020;5.304;2024-01-16T15:09:25;2.30;58.50
19214;DHT22;9741;51.020;5.304;2024-01-16T15:11:54;2.30;58.40
19214;DHT22;9741;51.020;5.304;2024-01-16T15:14:27;2.20;58.30
19214;DHT22;9741;51.020;5.304;2024-01-16T15:16:59;2.20;58.40
19214;DHT22;9741;51.020;5.304;2024-01-16T15:19:34;2.10;58.40
19214;DHT22;9741;51.020;5.304;2024-01-16T15:22:08;2.00;58.30
19214;DHT22;9741;51.020;5.304;2024-01-16T15:24:37;2.00;58.40
19214;DHT22;9741;51.020;5.304;2024-01-16T15:27:05;2.00;58.40
19214;DHT22;9741;51.020;5.304;2024-01-16T15:29:34;1.90;58.90
19214;DHT22;9741;51.020;5.304;2024-01-16T15:32:03;1.90;58.40
19214;DHT22;9741;51.020;5.304;2024-01-16T15:34:40;1.80;58.30
19214;DHT22;9741;51.020;5.304;2024-01-16T15:37:10;1.80;58.30
19214;DHT22;9741;51.020;5.304;2024-01-16T15:39:40;1.70;58.30
19214;DHT22;9741;51.020;5.304;2024-01-16T15:42:11;1.60;58.20
19214;DHT22;9741;51.020;5.304;2024-01-16T15:44:42;1.60;58.20
19214;DHT22;9741;51.020;5.304;2024-01-16T15:47:14;1.50;58.10
19214;DHT22;9741;51.020;5.304;2024-01-16T15:49:45;1.40;58.10
19214;DHT22;9741;51.020;5.304;2024-01-16T15:52:15;1.30;58.10
19214;DHT22;9741;51.020;5.304;2024-01-16T15:54:50;1.30;58.20
19214;DHT22;9741;51.020;5.304;2024-01-16T15:57:20;1.20;58.10
19214;DHT22;9741;51.020;5.304;2024-01-16T15:59:57;1.10;58.10
19214;DHT22;9741;51.020;5.304;2024-01-16T16:02:29;1.10;58.10
19214;DHT22;9741;51.020;5.304;2024-01-16T16:05:04;1.00;58.10
19214;DHT22;9741;51.020;5.304;2024-01-16T16:07:38;0.90;58.10
19214;DHT22;9741;51.020;5.304;2024-01-16T16:10:09;0.80;58.10
19214;DHT22;9741;51.020;5.304;2024-01-16T16:12:40;0.70;58.00
19214;DHT22;9741;51.020;5.304;2024-01-16T16:15:16;0.60;58.00
19214;DHT22;9741;51.020;5.304;2024-01-16T16:17:57;0.60;58.00
19214;DHT22;9741;51.020;5.304;2024-01-16T16:20:29;0.50;58.00
19214;DHT22;9741;51.020;5.304;2024-01-16T16:23:05;0.30;57.90
19214;DHT22;9741;51.020;5.304;2024-01-16T16:25:45;0.20;57.90
19214;DHT22;9741;51.020;5.304;2024-01-16T16:28:14;0.20;58.00
19214;DHT22;9741;51.020;5.304;2024-01-16T16:30:55;0.10;58.00
19214;DHT22;9741;51.020;5.304;2024-01-16T16:33:26;0.00;58.00
19214;DHT22;9741;51.020;5.304;2024-01-16T16:35:56;-0.10;58.00
19214;DHT22;9741;51.020;5.304;2024-01-16T16:38:27;-0.20;57.90
19214;DHT22;9741;51.020;5.304;2024-01-16T16:40:54;-0.30;57.90